createdAt,value
2023-01-17T00:02:10.671Z,9.37
2023-01-17T00:05:15.586Z,9.43
2023-01-17T00:08:20.003Z,9.40
2023-01-17T00:11:06.268Z,9.29
2023-01-17T00:13:52.053Z,9.42
2023-01-17T00:16:37.886Z,9.39
2023-01-17T00:19:42.142Z,9.48
2023-01-17T00:22:48.236Z,9.49
2023-01-17T00:25:53.217Z,9.53
2023-01-17T00:28:40.830Z,9.49
2023-01-17T00:31:26.668Z,9.58
2023-01-17T00:34:12.144Z,9.57
2023-01-17T00:36:57.962Z,9.62
2023-01-17T00:39:43.714Z,9.61
2023-01-17T00:42:29.966Z,9.68
2023-01-17T00:45:34.689Z,9.70
2023-01-17T00:48:39.179Z,9.63
2023-01-17T00:51:44.641Z,9.71
2023-01-17T00:54:49.174Z,9.74
2023-01-17T00:57:53.767Z,9.71
2023-01-17T01:00:58.579Z,9.78
2023-01-17T01:04:03.024Z,9.79
2023-01-17T01:07:07.669Z,9.80
2023-01-17T01:10:12.393Z,9.77
2023-01-17T01:13:17.286Z,9.73
2023-01-17T01:16:23.123Z,9.78
2023-01-17T01:19:27.819Z,9.81
2023-01-17T01:22:32.681Z,9.77
2023-01-17T01:25:37.439Z,9.87
2023-01-17T01:28:42.007Z,9.82
2023-01-17T01:31:46.896Z,9.98
2023-01-17T01:34:32.989Z,10.02
2023-01-17T01:37:18.685Z,10.02
2023-01-17T01:40:04.944Z,10.01
2023-01-17T01:42:59.908Z,10.06
2023-01-17T01:45:51.723Z,10.11
2023-01-17T01:48:43.751Z,10.01
2023-01-17T01:51:33.776Z,10.10
2023-01-17T01:54:28.779Z,10.07
2023-01-17T01:57:17.742Z,10.07
2023-01-17T02:00:16.948Z,10.14
2023-01-17T02:03:06.913Z,10.11
2023-01-17T02:05:53.145Z,10.16
2023-01-17T02:08:39.585Z,10.15
2023-01-17T02:11:25.768Z,10.06
2023-01-17T02:14:16.603Z,10.14
2023-01-17T02:17:20.574Z,9.96
2023-01-17T02:20:21.752Z,10.07
2023-01-17T02:23:23.148Z,10.13
2023-01-17T02:26:44.838Z,10.09
2023-01-17T02:29:33.751Z,10.10
2023-01-17T02:32:37.264Z,10.17
2023-01-17T02:35:34.390Z,10.06
2023-01-17T02:38:48.467Z,10.08
2023-01-17T02:41:36.522Z,10.22
2023-01-17T02:44:22.825Z,10.24
2023-01-17T02:47:21.065Z,10.29
2023-01-17T02:50:10.445Z,10.30
2023-01-17T02:52:59.389Z,10.32
2023-01-17T02:55:54.240Z,10.31
2023-01-17T02:59:07.007Z,10.22
2023-01-17T03:02:04.553Z,10.26
2023-01-17T03:05:02.574Z,10.18
2023-01-17T03:07:49.633Z,10.28
2023-01-17T03:10:36.367Z,10.27
2023-01-17T03:13:22.726Z,10.28
2023-01-17T03:16:13.490Z,10.20
2023-01-17T03:18:59.573Z,10.26
2023-01-17T03:21:45.425Z,10.20
2023-01-17T03:24:31.286Z,10.25
2023-01-17T03:27:17.083Z,10.11
2023-01-17T03:30:03.524Z,10.25
2023-01-17T03:32:49.984Z,10.24
2023-01-17T03:35:36.182Z,10.18
2023-01-17T03:38:22.361Z,10.31
2023-01-17T03:41:08.824Z,10.25
2023-01-17T03:43:54.633Z,10.29
2023-01-17T03:46:40.558Z,10.20
2023-01-17T03:49:26.579Z,10.30
2023-01-17T03:52:12.604Z,10.29
2023-01-17T03:54:58.396Z,10.39
2023-01-17T03:57:44.228Z,10.40
2023-01-17T04:00:30.161Z,10.28
2023-01-17T04:03:15.857Z,10.42
2023-01-17T04:06:01.786Z,10.41
2023-01-17T04:08:47.713Z,10.29
2023-01-17T04:11:33.306Z,10.48
2023-01-17T04:14:19.225Z,10.46
2023-01-17T04:17:05.004Z,10.41
2023-01-17T04:19:50.988Z,10.50
2023-01-17T04:22:36.838Z,10.45
2023-01-17T04:25:22.553Z,10.49
2023-01-17T04:28:08.743Z,10.51
2023-01-17T04:30:58.137Z,10.61
2023-01-17T04:33:44.313Z,10.67
2023-01-17T04:36:30.434Z,10.55
2023-01-17T04:39:16.313Z,10.65
2023-01-17T04:42:03.022Z,10.57
2023-01-17T04:44:49.174Z,10.65
2023-01-17T04:47:35.034Z,10.69
2023-01-17T04:50:20.837Z,10.67
2023-01-17T04:53:07.159Z,10.59
2023-01-17T04:55:53.023Z,10.44
2023-01-17T04:58:38.928Z,10.65
2023-01-17T05:01:25.078Z,10.63
2023-01-17T05:04:11.344Z,10.64
2023-01-17T05:06:57.146Z,10.57
2023-01-17T05:09:43.941Z,10.58
2023-01-17T05:12:30.122Z,10.63
2023-01-17T05:15:16.278Z,10.65
2023-01-17T05:18:02.000Z,10.65
2023-01-17T05:20:47.948Z,10.55
2023-01-17T05:23:33.973Z,10.54
2023-01-17T05:26:19.780Z,10.60
2023-01-17T05:29:05.706Z,10.39
2023-01-17T05:31:51.510Z,10.45
2023-01-17T05:34:37.234Z,10.56
2023-01-17T05:37:23.129Z,10.55
2023-01-17T05:40:09.900Z,10.54
2023-01-17T05:42:57.652Z,10.61
2023-01-17T05:45:43.949Z,10.64
2023-01-17T05:48:29.666Z,10.63
2023-01-17T05:51:15.718Z,10.62
2023-01-17T05:54:01.526Z,10.58
2023-01-17T05:56:47.343Z,10.55
2023-01-17T05:59:37.509Z,10.67
2023-01-17T06:02:24.041Z,10.69
2023-01-17T06:05:10.052Z,10.71
2023-01-17T06:07:56.732Z,10.67
2023-01-17T06:10:42.600Z,10.71
2023-01-17T06:13:28.472Z,10.64
2023-01-17T06:16:14.325Z,10.63
2023-01-17T06:19:00.102Z,10.73
2023-01-17T06:21:45.929Z,10.73
2023-01-17T06:24:31.988Z,10.64
2023-01-17T06:27:18.223Z,10.67
2023-01-17T06:30:04.390Z,10.74
2023-01-17T06:32:55.145Z,10.72
2023-01-17T06:35:48.393Z,10.73
2023-01-17T06:38:34.837Z,10.81
2023-01-17T06:41:20.725Z,10.83
2023-01-17T06:44:07.875Z,10.87
2023-01-17T06:46:54.422Z,10.82
2023-01-17T06:49:40.396Z,10.84
2023-01-17T06:52:26.294Z,10.92
2023-01-17T06:55:11.986Z,11.00
2023-01-17T06:57:59.624Z,10.95
2023-01-17T07:00:45.908Z,10.98
2023-01-17T07:03:31.692Z,10.69
2023-01-17T07:06:17.396Z,10.90
2023-01-17T07:09:04.449Z,11.02
2023-01-17T07:11:51.906Z,10.99
2023-01-17T07:14:37.686Z,10.99
2023-01-17T07:17:23.652Z,11.03
2023-01-17T07:20:10.057Z,11.11
2023-01-17T07:22:55.951Z,11.08
2023-01-17T07:25:42.094Z,11.09
2023-01-17T07:28:28.493Z,11.11
2023-01-17T07:31:14.451Z,11.11
2023-01-17T07:34:00.740Z,11.10
2023-01-17T07:36:48.607Z,11.18
2023-01-17T07:39:34.685Z,11.15
2023-01-17T07:42:23.839Z,11.21
2023-01-17T07:45:11.660Z,11.22
2023-01-17T07:47:58.030Z,11.31
2023-01-17T07:50:44.499Z,11.22
2023-01-17T07:53:30.994Z,11.24
2023-01-17T07:56:17.510Z,11.31
2023-01-17T07:59:03.516Z,11.25
2023-01-17T08:01:49.667Z,11.35
2023-01-17T08:04:35.363Z,11.36
2023-01-17T08:07:21.444Z,11.45
2023-01-17T08:10:08.828Z,11.43
2023-01-17T08:12:55.440Z,11.44
2023-01-17T08:15:41.377Z,11.41
2023-01-17T08:18:27.101Z,11.36
2023-01-17T08:21:15.036Z,11.41
2023-01-17T08:24:00.920Z,11.48
2023-01-17T08:26:46.847Z,11.47
2023-01-17T08:29:32.807Z,11.41
2023-01-17T08:32:19.946Z,11.47
2023-01-17T08:35:06.202Z,11.48
2023-01-17T08:37:54.761Z,11.43
2023-01-17T08:40:40.544Z,11.26
2023-01-17T08:43:26.189Z,11.41
2023-01-17T08:46:12.105Z,11.45
2023-01-17T08:48:59.178Z,11.49
2023-01-17T08:51:45.427Z,11.43
2023-01-17T08:54:31.320Z,11.38
2023-01-17T08:57:17.060Z,11.51
2023-01-17T09:00:03.141Z,11.47
2023-01-17T09:02:52.157Z,11.46
2023-01-17T09:05:38.025Z,11.48
2023-01-17T09:08:24.135Z,11.42
2023-01-17T09:11:12.172Z,11.52
2023-01-17T09:13:58.263Z,11.57
2023-01-17T09:16:43.997Z,11.60
2023-01-17T09:19:29.956Z,11.73
2023-01-17T09:22:15.908Z,11.63
2023-01-17T09:25:01.754Z,11.66
2023-01-17T09:27:47.661Z,11.75
2023-01-17T09:30:33.556Z,11.79
2023-01-17T09:33:20.042Z,11.90
2023-01-17T09:36:06.193Z,11.93
2023-01-17T09:38:59.064Z,11.83
2023-01-17T09:41:54.556Z,11.85
2023-01-17T09:44:54.014Z,11.72
2023-01-17T09:47:53.745Z,11.93
2023-01-17T09:50:44.743Z,12.05
2023-01-17T09:53:33.938Z,11.97
2023-01-17T09:56:25.074Z,12.05
2023-01-17T09:59:21.645Z,12.10
2023-01-17T10:02:14.291Z,12.02
2023-01-17T10:05:11.025Z,12.16
2023-01-17T10:08:57.562Z,12.09
2023-01-17T10:12:18.849Z,12.10
2023-01-17T10:15:56.460Z,12.03
2023-01-17T10:18:51.760Z,12.17
2023-01-17T10:21:50.324Z,12.14
2023-01-17T10:24:58.004Z,12.12
2023-01-17T10:27:48.710Z,12.29
2023-01-17T10:30:39.279Z,12.09
2023-01-17T10:33:28.937Z,12.13
2023-01-17T10:36:22.812Z,12.19
2023-01-17T10:39:34.919Z,12.17
2023-01-17T10:42:29.249Z,12.26
2023-01-17T10:45:28.356Z,12.28
2023-01-17T10:48:29.501Z,12.28
2023-01-17T10:51:21.940Z,12.35
2023-01-17T10:54:30.942Z,12.30
2023-01-17T10:57:21.055Z,12.43
2023-01-17T11:00:28.678Z,12.47
2023-01-17T11:03:17.411Z,12.46
2023-01-17T11:06:26.827Z,12.48
2023-01-17T11:09:14.060Z,12.59
2023-01-17T11:12:00.260Z,12.70
2023-01-17T11:15:01.443Z,12.91
2023-01-17T11:18:07.498Z,12.89
2023-01-17T11:20:54.463Z,13.10
2023-01-17T11:23:42.367Z,13.15
2023-01-17T11:26:33.072Z,13.20
2023-01-17T11:29:31.104Z,13.22
2023-01-17T11:32:32.771Z,13.20
2023-01-17T11:35:30.279Z,13.26
2023-01-17T11:38:21.776Z,13.30
2023-01-17T11:41:28.275Z,13.41
2023-01-17T11:44:27.517Z,13.38
2023-01-17T11:47:13.648Z,13.47
2023-01-17T11:49:59.586Z,13.54
2023-01-17T11:52:45.387Z,13.52
2023-01-17T11:55:31.178Z,13.50
2023-01-17T11:58:17.184Z,13.65
2023-01-17T12:01:42.289Z,13.72
2023-01-17T12:04:43.050Z,13.76
2023-01-17T12:07:45.152Z,13.87
2023-01-17T12:10:33.614Z,13.95
2023-01-17T12:13:44.600Z,14.05
2023-01-17T12:16:39.568Z,13.97
2023-01-17T12:19:28.782Z,14.12
2023-01-17T12:22:34.095Z,14.10
2023-01-17T12:25:37.162Z,14.05
2023-01-17T12:28:45.782Z,13.84
2023-01-17T12:31:40.074Z,14.14
2023-01-17T12:34:40.306Z,14.25
2023-01-17T12:37:26.477Z,14.38
2023-01-17T12:40:18.776Z,14.54
2023-01-17T12:43:29.646Z,14.52
2023-01-17T12:46:27.343Z,14.65
2023-01-17T12:49:32.690Z,14.59
2023-01-17T12:52:36.749Z,14.63
2023-01-17T12:55:49.878Z,14.71
2023-01-17T12:58:47.764Z,14.60
2023-01-17T13:01:39.823Z,14.64
2023-01-17T13:04:58.051Z,14.41
2023-01-17T13:08:03.501Z,14.23
2023-01-17T13:10:54.501Z,14.42
2023-01-17T13:13:41.356Z,14.44
2023-01-17T13:16:33.052Z,14.29
2023-01-17T13:19:21.785Z,14.34
2023-01-17T13:22:09.505Z,14.10
2023-01-17T13:25:31.996Z,14.09
2023-01-17T13:28:34.307Z,13.99
2023-01-17T13:31:24.753Z,14.22
2023-01-17T13:34:34.980Z,13.88
2023-01-17T13:37:42.600Z,14.29
2023-01-17T13:40:53.753Z,14.14
2023-01-17T13:44:02.976Z,14.33
2023-01-17T13:46:53.551Z,14.19
2023-01-17T13:49:39.414Z,14.10
2023-01-17T13:52:25.239Z,14.13
2023-01-17T13:55:43.768Z,13.80
2023-01-17T13:58:34.062Z,13.98
2023-01-17T14:01:43.495Z,14.07
2023-01-17T14:05:09.585Z,14.09
2023-01-17T14:07:59.369Z,14.08
2023-01-17T14:10:48.231Z,14.08
2023-01-17T14:13:35.713Z,14.09
2023-01-17T14:16:21.605Z,13.48
2023-01-17T14:19:25.369Z,13.84
2023-01-17T14:22:55.210Z,13.81
2023-01-17T14:25:41.325Z,13.89
2023-01-17T14:28:27.192Z,13.87
2023-01-17T14:31:15.303Z,13.83
2023-01-17T14:34:13.033Z,13.76
2023-01-17T14:37:44.326Z,13.71
2023-01-17T14:40:35.834Z,13.69
2023-01-17T14:43:24.135Z,13.69
2023-01-17T14:46:29.126Z,13.74
2023-01-17T14:49:24.266Z,13.82
2023-01-17T14:52:15.426Z,13.77
2023-01-17T14:55:14.852Z,13.80
2023-01-17T14:58:01.160Z,13.79
2023-01-17T15:00:50.088Z,13.79
2023-01-17T15:03:44.443Z,13.55
2023-01-17T15:06:39.071Z,13.47
2023-01-17T15:09:27.555Z,13.61
2023-01-17T15:12:16.937Z,13.69
2023-01-17T15:15:03.280Z,13.64
2023-01-17T15:17:49.557Z,13.58
2023-01-17T15:20:36.373Z,13.48
2023-01-17T15:23:23.508Z,13.39
2023-01-17T15:26:13.874Z,13.54
2023-01-17T15:29:06.371Z,13.57
2023-01-17T15:31:54.528Z,13.40
2023-01-17T15:34:44.779Z,13.38
2023-01-17T15:37:36.749Z,13.40
2023-01-17T15:40:24.847Z,13.38
2023-01-17T15:43:19.411Z,13.31
2023-01-17T15:46:05.337Z,13.17
2023-01-17T15:48:51.925Z,12.88
2023-01-17T15:51:39.082Z,13.08
2023-01-17T15:54:37.112Z,12.98
2023-01-17T15:57:29.790Z,13.03
2023-01-17T16:00:20.453Z,12.92
2023-01-17T16:03:24.858Z,12.91
2023-01-17T16:06:29.559Z,12.85
2023-01-17T16:09:22.661Z,12.89
2023-01-17T16:12:08.241Z,12.68
2023-01-17T16:15:11.332Z,12.85
2023-01-17T16:18:06.837Z,12.83
2023-01-17T16:21:00.923Z,12.79
2023-01-17T16:23:49.975Z,12.70
2023-01-17T16:26:35.759Z,12.84
2023-01-17T16:29:21.490Z,12.80
2023-01-17T16:32:08.879Z,12.72
2023-01-17T16:34:54.922Z,12.68
2023-01-17T16:37:41.925Z,12.68
2023-01-17T16:40:30.478Z,12.71
2023-01-17T16:43:17.934Z,12.66
2023-01-17T16:46:04.049Z,12.42
2023-01-17T16:48:49.827Z,12.61
2023-01-17T16:51:35.768Z,12.60
2023-01-17T16:54:21.680Z,12.48
2023-01-17T16:57:07.660Z,12.35
2023-01-17T16:59:53.700Z,12.34
2023-01-17T17:02:40.858Z,12.48
2023-01-17T17:05:26.857Z,12.60
2023-01-17T17:08:15.351Z,12.52
2023-01-17T17:11:13.164Z,12.55
2023-01-17T17:13:59.156Z,12.56
2023-01-17T17:16:45.388Z,12.57
2023-01-17T17:19:31.372Z,12.21
2023-01-17T17:22:17.501Z,12.53
2023-01-17T17:25:03.958Z,12.48
2023-01-17T17:27:50.448Z,12.55
2023-01-17T17:30:36.499Z,12.51
2023-01-17T17:33:22.279Z,12.38
2023-01-17T17:36:10.351Z,12.43
2023-01-17T17:38:57.952Z,12.44
2023-01-17T17:41:45.639Z,12.44
2023-01-17T17:44:31.483Z,12.27
2023-01-17T17:47:17.961Z,12.33
2023-01-17T17:50:04.214Z,12.44
2023-01-17T17:52:50.432Z,12.51
2023-01-17T17:55:36.508Z,12.56
2023-01-17T17:58:29.790Z,12.57
2023-01-17T18:01:16.098Z,12.67
2023-01-17T18:04:03.241Z,12.70
2023-01-17T18:06:49.160Z,12.44
2023-01-17T18:09:35.099Z,12.66
2023-01-17T18:12:20.952Z,12.65
2023-01-17T18:15:07.187Z,12.62
2023-01-17T18:17:55.583Z,12.52
2023-01-17T18:20:41.676Z,12.57
2023-01-17T18:23:27.829Z,12.59
2023-01-17T18:26:31.489Z,12.60
2023-01-17T18:29:19.648Z,12.53
2023-01-17T18:32:05.764Z,12.50
2023-01-17T18:34:51.558Z,12.49
2023-01-17T18:37:37.393Z,12.63
2023-01-17T18:40:23.455Z,12.50
2023-01-17T18:43:09.330Z,12.39
2023-01-17T18:45:55.315Z,12.56
2023-01-17T18:48:41.738Z,12.43
2023-01-17T18:51:30.296Z,12.48
2023-01-17T18:54:17.637Z,12.56
2023-01-17T18:57:03.596Z,12.47
2023-01-17T18:59:49.549Z,12.44
2023-01-17T19:02:35.294Z,12.49
2023-01-17T19:05:21.733Z,12.54
2023-01-17T19:08:07.657Z,12.51
2023-01-17T19:10:54.711Z,12.23
2023-01-17T19:13:41.959Z,12.39
2023-01-17T19:16:30.531Z,12.48
2023-01-17T19:19:16.767Z,12.51
2023-01-17T19:22:02.757Z,12.20
2023-01-17T19:24:48.677Z,12.42
2023-01-17T19:27:34.598Z,12.17
2023-01-17T19:30:20.773Z,12.44
2023-01-17T19:33:07.209Z,12.48
2023-01-17T19:35:52.918Z,12.32
2023-01-17T19:38:39.159Z,12.47
2023-01-17T19:41:27.280Z,12.51
2023-01-17T19:44:14.132Z,12.41
2023-01-17T19:47:01.276Z,12.44
2023-01-17T19:49:47.362Z,12.26
2023-01-17T19:52:33.451Z,12.53
2023-01-17T19:55:25.631Z,12.50
2023-01-17T19:58:13.158Z,12.18
2023-01-17T20:01:16.884Z,12.29
2023-01-17T20:04:03.497Z,12.34
2023-01-17T20:06:49.635Z,12.45
2023-01-17T20:09:35.472Z,12.24
2023-01-17T20:12:21.494Z,12.36
2023-01-17T20:15:08.079Z,12.47
2023-01-17T20:17:54.440Z,12.45
2023-01-17T20:20:56.343Z,12.43
2023-01-17T20:23:44.136Z,12.45
2023-01-17T20:26:35.984Z,12.56
2023-01-17T20:29:21.827Z,12.51
2023-01-17T20:32:08.183Z,12.41
2023-01-17T20:34:54.126Z,12.59
2023-01-17T20:37:40.144Z,12.51
2023-01-17T20:40:26.344Z,12.58
2023-01-17T20:43:12.228Z,12.65
2023-01-17T20:45:58.284Z,12.52
2023-01-17T20:48:52.334Z,12.57
2023-01-17T20:51:39.854Z,12.57
2023-01-17T20:54:26.180Z,12.57
2023-01-17T20:57:12.470Z,12.63
2023-01-17T20:59:58.336Z,12.63
2023-01-17T21:02:45.370Z,12.55
2023-01-17T21:05:31.449Z,12.71
2023-01-17T21:08:18.669Z,12.66
2023-01-17T21:11:05.360Z,12.65
2023-01-17T21:13:52.008Z,12.67
2023-01-17T21:16:41.484Z,12.62
2023-01-17T21:19:29.331Z,12.55
2023-01-17T21:22:16.729Z,12.57
2023-01-17T21:25:02.632Z,12.56
2023-01-17T21:27:48.633Z,12.51
2023-01-17T21:30:34.701Z,12.71
2023-01-17T21:33:21.699Z,12.54
2023-01-17T21:36:08.566Z,12.62
2023-01-17T21:38:57.589Z,12.68
2023-01-17T21:41:45.825Z,12.67
2023-01-17T21:44:36.373Z,12.73
2023-01-17T21:47:22.524Z,12.73
2023-01-17T21:50:09.477Z,12.82
2023-01-17T21:52:55.404Z,12.74
2023-01-17T21:56:00.112Z,12.81
2023-01-17T21:58:48.262Z,12.66
2023-01-17T22:01:34.368Z,12.72
2023-01-17T22:04:20.577Z,12.84
2023-01-17T22:07:06.318Z,12.70
2023-01-17T22:09:52.208Z,12.84
2023-01-17T22:12:38.107Z,12.79
2023-01-17T22:15:24.049Z,12.84
2023-01-17T22:18:10.874Z,12.91
2023-01-17T22:20:57.491Z,12.91
2023-01-17T22:23:52.250Z,12.87
2023-01-17T22:26:39.938Z,12.91
2023-01-17T22:29:27.048Z,12.91
2023-01-17T22:32:13.054Z,12.89
2023-01-17T22:34:59.024Z,12.89
2023-01-17T22:37:44.843Z,12.93
2023-01-17T22:40:32.636Z,12.92
2023-01-17T22:43:18.854Z,12.83
2023-01-17T22:46:05.878Z,12.86
2023-01-17T22:48:52.979Z,12.89
2023-01-17T22:51:39.741Z,12.79
2023-01-17T22:54:25.596Z,12.75
2023-01-17T22:57:11.673Z,12.66
2023-01-17T22:59:57.618Z,12.76
2023-01-17T23:02:43.675Z,12.74
2023-01-17T23:05:29.622Z,12.69
2023-01-17T23:08:15.446Z,12.73
2023-01-17T23:11:20.000Z,12.64
2023-01-17T23:14:06.833Z,12.68
2023-01-17T23:17:19.462Z,12.56
2023-01-17T23:20:06.786Z,12.64
2023-01-17T23:22:52.696Z,12.58
2023-01-17T23:25:38.927Z,12.60
2023-01-17T23:28:24.906Z,12.57
2023-01-17T23:31:12.558Z,12.63
2023-01-17T23:33:58.631Z,12.52
2023-01-17T23:36:44.469Z,12.54
2023-01-17T23:39:30.616Z,12.53
2023-01-17T23:42:38.689Z,12.48
2023-01-17T23:45:24.974Z,12.32
2023-01-17T23:48:11.244Z,12.38
2023-01-17T23:50:59.261Z,12.37
2023-01-17T23:53:45.248Z,12.38
2023-01-17T23:56:31.401Z,12.45
2023-01-17T23:59:17.665Z,12.49
